KFRGKGON

Guest
Details From KFRG - REPUBLIC
To KGON - GROTON NEW LONDON
Flight Number -
Tags decoded
Created
Modified
Stats Distance 72 nm / 133 km
Max Altitude 0 ft / 0 m
Waypoints 2
Social Downloads 0
Likes 0
Share VATSIM

Download

Looking for another format? Having issues loading an existing format? Contact us
Advertisement - Login to hide

Notes

Requested: KFRG KGON

Route

KFRG KGON

ID Type Via Altitude (ft/m) Position (lat/lon) Dist (leg/tot) Name
O KFRG APT - 0 / 0 40.72880 / -73.41350 - / 0 nm REPUBLIC
O KGON APT - 0 / 0 41.33000 / -72.04540 71 / 71 nm GROTON NEW LONDON

Altitude Profile

Advertisement - Login to hide

KFRG

Details ICAO KFRG (FRG)
Name Farmingdale Republic
Region United States
Timezone America/New_York (UTC-4.0)
Stats Elevation 80 ft / 24 m (AMSL)
Location 40.728800° -73.413500°
Runways 2
Magnetic Variation 13.147° W

METAR

KFRG 252129Z 15005KT 10SM FEW008 FEW070 25/22 A2983 RMK AO2 T02500222

Decode

TAF

Not found

Departure Runways

ID Width Length Bearing (true/mag) Surface Threshold Overrun Markings Lighting
01 150 ft / 46 m 5,533 ft / 1,687 m 359.18° / 12.33° ASPHALT 0 ft / 0 m 387 ft / 118 m APP CENTERLINE EDGE THRESHOLD MALSF
14 151 ft / 46 m 6,832 ft / 2,082 m 132.36° / 145.50° ASPHALT 0 ft / 0 m 417 ft / 127 m PREC-APP CENTERLINE EDGE THRESHOLD MALSF
19 150 ft / 46 m 5,533 ft / 1,687 m 179.18° / 192.33° ASPHALT 0 ft / 0 m 705 ft / 215 m APP CENTERLINE EDGE THRESHOLD MALSF
32 151 ft / 46 m 6,832 ft / 2,082 m 312.37° / 325.52° ASPHALT 0 ft / 0 m 430 ft / 131 m APP CENTERLINE EDGE THRESHOLD MALSF

KGON

Details ICAO KGON (GON)
Name GROTON NEW LONDON
Region United States
Timezone America/New_York (UTC-4.0)
Stats Elevation 7 ft / 2 m (AMSL)
Location 41.330000° -72.045400°
Runways 2
Magnetic Variation 13.903° W

METAR

KGON 252124Z 14010KT 1 1/2SM BR OVC004 20/18 A2985 RMK AO2 T02000178

Decode

TAF

KGON 252108Z 2521/2618 14010KT 2SM BR OVC004 FM252300 18007KT 6SM BR OVC004 TEMPO 2603/2607 1/4SM FG VV001 FM260700 35004KT P6SM SCT015 SCT050 TEMPO 2608/2612 2SM BR OVC004 FM261500 23007KT P6SM SCT060

Decode

Destination Runways

ID Width Length Bearing (true/mag) Surface Threshold Overrun Markings Lighting
05 150 ft / 46 m 5,005 ft / 1,525 m 33.88° / 47.78° ASPHALT 0 ft / 0 m 98 ft / 30 m PREC-APP EDGE THRESHOLD MALSR
15 96 ft / 29 m 4,004 ft / 1,220 m 135.16° / 149.07° ASPHALT 312 ft / 95 m 0 ft / 0 m APP EDGE THRESHOLD
23 150 ft / 46 m 5,005 ft / 1,525 m 213.88° / 227.79° ASPHALT 0 ft / 0 m 95 ft / 29 m APP EDGE THRESHOLD REIL-OMNI
33 96 ft / 29 m 4,004 ft / 1,220 m 315.17° / 329.07° ASPHALT 207 ft / 63 m 0 ft / 0 m APP EDGE THRESHOLD REIL-OMNI

Approach Navaids

Runway Type Ident Frequency Range Bearing (true/mag) Slope Elevation
05 DME IGON 111.30 MHz 18 nm / 33 km - - 24 ft / 7 m (AMSL)
05 GS IGON 111.30 MHz 10 nm / 19 km 33.88° / 47.78 ° 3.00° 7 ft / 2 m (AMSL)
05 LOC-ILS IGON 111.30 MHz 18 nm / 33 km 33.88° / 47.78 ° - 7 ft / 2 m (AMSL)

Popular Alternatives